createdAt,value
2016-12-20T00:09:08.731Z,0
2016-12-20T00:19:22.145Z,0
2016-12-20T00:29:36.832Z,0
2016-12-20T00:39:51.517Z,0
2016-12-20T00:50:05.585Z,0
2016-12-20T01:00:19.934Z,0
2016-12-20T01:10:34.253Z,0
2016-12-20T01:20:47.402Z,0
2016-12-20T01:31:03.585Z,0
2016-12-20T01:41:15.828Z,0
2016-12-20T01:51:28.750Z,0
2016-12-20T02:01:42.801Z,0
2016-12-20T02:11:57.122Z,0
2016-12-20T02:22:10.407Z,0
2016-12-20T02:32:24.255Z,0
2016-12-20T02:42:39.126Z,0
2016-12-20T02:52:52.714Z,0
2016-12-20T03:03:07.572Z,0
2016-12-20T03:13:21.860Z,0
2016-12-20T03:23:34.922Z,0
2016-12-20T03:33:49.014Z,0
2016-12-20T03:44:02.732Z,0
2016-12-20T03:54:16.682Z,0
2016-12-20T04:04:30.806Z,0
2016-12-20T04:14:43.941Z,0
2016-12-20T04:24:57.773Z,0
2016-12-20T04:35:12.386Z,0
2016-12-20T04:45:25.807Z,0
2016-12-20T04:55:40.283Z,0
2016-12-20T05:05:54.994Z,0
2016-12-20T05:16:09.762Z,0
2016-12-20T05:26:24.135Z,0
2016-12-20T05:36:38.385Z,0
2016-12-20T05:46:52.820Z,0
2016-12-20T05:57:07.682Z,0
2016-12-20T06:07:22.383Z,0
2016-12-20T06:17:36.803Z,0
2016-12-20T06:27:49.840Z,0
2016-12-20T06:38:03.346Z,0
2016-12-20T06:48:16.523Z,0
2016-12-20T06:58:30.562Z,0
2016-12-20T07:08:45.296Z,0
2016-12-20T07:18:58.696Z,0
2016-12-20T07:29:13.445Z,5
2016-12-20T07:39:26.506Z,15
2016-12-20T07:49:41.221Z,30
2016-12-20T07:59:55.647Z,45
2016-12-20T08:10:09.941Z,60
2016-12-20T08:20:24.400Z,70
2016-12-20T08:30:39.033Z,100
2016-12-20T08:40:53.496Z,110
2016-12-20T08:51:07.194Z,185
2016-12-20T09:01:22.195Z,220
2016-12-20T09:11:35.290Z,220
2016-12-20T09:21:49.911Z,280
2016-12-20T09:32:04.561Z,365
2016-12-20T09:42:17.833Z,370
2016-12-20T09:52:31.397Z,370
2016-12-20T10:02:45.194Z,405
2016-12-20T10:12:58.463Z,460
2016-12-20T10:23:12.094Z,460
2016-12-20T10:33:25.614Z,480
2016-12-20T10:43:40.618Z,505
2016-12-20T10:53:55.189Z,505
2016-12-20T11:04:09.271Z,520
2016-12-20T11:14:23.126Z,520
2016-12-20T11:24:36.241Z,520
2016-12-20T11:34:50.865Z,510
2016-12-20T11:45:04.933Z,520
2016-12-20T11:55:19.291Z,510
2016-12-20T12:05:32.597Z,480
2016-12-20T12:15:46.798Z,460
2016-12-20T12:26:00.513Z,445
2016-12-20T12:36:15.017Z,435
2016-12-20T12:46:29.069Z,400
2016-12-20T12:56:43.586Z,385
2016-12-20T13:06:57.512Z,310
2016-12-20T13:17:10.908Z,230
2016-12-20T13:27:23.869Z,200
2016-12-20T13:37:38.928Z,200
2016-12-20T13:47:51.610Z,160
2016-12-20T13:58:04.999Z,155
2016-12-20T14:08:19.055Z,135
2016-12-20T14:18:33.712Z,120
2016-12-20T14:28:47.785Z,100
2016-12-20T14:39:00.921Z,85
2016-12-20T14:49:13.996Z,65
2016-12-20T14:59:28.463Z,45
2016-12-20T15:09:42.782Z,25
2016-12-20T15:19:56.488Z,10
2016-12-20T15:30:09.789Z,5
2016-12-20T15:40:23.334Z,0
2016-12-20T15:50:38.742Z,0
2016-12-20T16:00:52.183Z,0
2016-12-20T16:11:06.479Z,0
2016-12-20T16:21:21.388Z,0
2016-12-20T16:31:35.190Z,0
2016-12-20T16:41:49.843Z,0
2016-12-20T16:52:04.288Z,0
2016-12-20T17:02:18.392Z,0
2016-12-20T17:12:33.333Z,0
2016-12-20T17:22:47.577Z,0
2016-12-20T17:33:02.471Z,0
2016-12-20T17:43:17.163Z,0
2016-12-20T17:53:31.618Z,0
2016-12-20T18:03:46.134Z,0
2016-12-20T18:14:01.052Z,0
2016-12-20T18:24:15.782Z,0
2016-12-20T18:34:29.028Z,0
2016-12-20T18:44:43.259Z,0
2016-12-20T18:54:57.237Z,0
2016-12-20T19:05:10.984Z,0
2016-12-20T19:15:25.758Z,0
2016-12-20T19:25:40.047Z,0
2016-12-20T19:35:54.502Z,0
2016-12-20T19:46:08.987Z,0
2016-12-20T19:56:24.044Z,0
2016-12-20T20:06:37.897Z,0
2016-12-20T20:16:50.789Z,0
2016-12-20T20:27:05.584Z,0
2016-12-20T20:37:18.952Z,0
2016-12-20T20:47:33.237Z,0
2016-12-20T20:57:46.279Z,0
2016-12-20T21:08:01.137Z,0
2016-12-20T21:28:29.103Z,0
2016-12-20T21:38:42.322Z,0
2016-12-20T21:48:57.058Z,0
2016-12-20T21:59:10.840Z,0
2016-12-20T22:19:44.270Z,0
2016-12-20T22:29:51.623Z,0
2016-12-20T22:40:06.504Z,0
2016-12-20T22:50:21.135Z,0
2016-12-20T23:10:50.623Z,0
2016-12-20T23:21:04.558Z,0
2016-12-20T23:41:32.817Z,0
2016-12-20T23:51:45.959Z,0
